createdAt,value
2023-11-23T00:01:16.446Z,27.97
2023-11-23T00:03:44.857Z,27.23
2023-11-23T00:06:13.323Z,27.77
2023-11-23T00:08:43.149Z,31.20
2023-11-23T00:11:11.894Z,29.23
2023-11-23T00:13:40.548Z,29.57
2023-11-23T00:16:11.131Z,27.57
2023-11-23T00:18:39.630Z,28.77
2023-11-23T00:21:08.227Z,30.33
2023-11-23T00:23:36.598Z,31.23
2023-11-23T00:26:05.262Z,36.27
2023-11-23T00:28:33.624Z,29.63
2023-11-23T00:31:02.069Z,33.40
2023-11-23T00:33:32.202Z,28.77
2023-11-23T00:36:00.867Z,33.27
2023-11-23T00:38:29.373Z,30.67
2023-11-23T00:40:57.749Z,26.73
2023-11-23T00:43:26.480Z,31.40
2023-11-23T00:45:54.852Z,27.77
2023-11-23T00:48:23.327Z,24.43
2023-11-23T00:50:53.184Z,25.60
2023-11-23T00:53:21.609Z,23.23
2023-11-23T00:55:50.494Z,31.23
2023-11-23T00:58:18.994Z,32.23
2023-11-23T01:00:47.391Z,31.73
2023-11-23T01:03:15.985Z,31.00
2023-11-23T01:05:45.311Z,28.50
2023-11-23T01:08:16.060Z,28.80
2023-11-23T01:10:45.060Z,27.53
2023-11-23T01:13:14.595Z,25.63
2023-11-23T01:15:43.003Z,28.87
2023-11-23T01:18:11.613Z,26.87
2023-11-23T01:20:40.108Z,28.43
2023-11-23T01:23:08.648Z,30.33
2023-11-23T01:25:38.496Z,33.47
2023-11-23T01:28:07.279Z,29.90
2023-11-23T01:30:35.743Z,30.87
2023-11-23T01:33:04.352Z,26.10
2023-11-23T01:35:33.017Z,26.50
2023-11-23T01:38:02.785Z,28.30
2023-11-23T01:40:31.961Z,28.27
2023-11-23T01:43:05.051Z,26.53
2023-11-23T01:45:33.524Z,28.80
2023-11-23T01:48:03.383Z,27.87
2023-11-23T01:50:33.037Z,30.93
2023-11-23T01:53:02.258Z,29.83
2023-11-23T01:55:31.145Z,30.10
2023-11-23T01:58:03.545Z,30.30
2023-11-23T02:00:33.754Z,28.90
2023-11-23T02:03:03.235Z,30.33
2023-11-23T02:05:31.931Z,30.53
2023-11-23T02:08:00.327Z,31.93
2023-11-23T02:10:29.611Z,26.13
2023-11-23T02:12:58.643Z,30.03
2023-11-23T02:15:27.533Z,27.83
2023-11-23T02:18:04.419Z,29.37
2023-11-23T02:20:33.933Z,28.00
2023-11-23T02:23:02.463Z,28.93
2023-11-23T02:25:31.632Z,24.73
2023-11-23T02:28:00.314Z,31.47
2023-11-23T02:30:29.019Z,32.93
2023-11-23T02:32:57.746Z,30.00
2023-11-23T02:35:26.462Z,28.80
2023-11-23T02:37:54.830Z,31.83
2023-11-23T02:40:23.252Z,35.63
2023-11-23T02:42:53.165Z,29.00
2023-11-23T02:45:22.444Z,33.47
2023-11-23T02:47:51.563Z,31.47
2023-11-23T02:50:19.987Z,29.37
2023-11-23T02:52:48.645Z,28.17
2023-11-23T02:55:17.149Z,29.97
2023-11-23T02:57:46.351Z,29.67
2023-11-23T03:00:16.674Z,26.20
2023-11-23T03:02:45.176Z,31.20
2023-11-23T03:05:13.607Z,28.33
2023-11-23T03:07:42.017Z,31.30
2023-11-23T03:10:11.609Z,29.00
2023-11-23T03:12:40.064Z,27.87
2023-11-23T03:15:09.738Z,30.70
2023-11-23T03:17:39.675Z,25.27
2023-11-23T03:20:08.852Z,26.00
2023-11-23T03:22:37.216Z,28.93
2023-11-23T03:25:06.085Z,28.37
2023-11-23T03:27:34.572Z,25.03
2023-11-23T03:30:03.180Z,26.40
2023-11-23T03:32:33.632Z,26.00
2023-11-23T03:35:04.642Z,29.13
2023-11-23T03:37:33.087Z,25.57
2023-11-23T03:40:01.486Z,26.27
2023-11-23T03:42:29.944Z,23.07
2023-11-23T03:44:58.415Z,20.70
2023-11-23T03:47:26.904Z,26.73
2023-11-23T03:49:55.503Z,25.00
2023-11-23T03:52:25.401Z,22.30
2023-11-23T03:54:54.598Z,25.27
2023-11-23T03:57:23.127Z,21.70
2023-11-23T03:59:51.546Z,25.13
2023-11-23T04:02:20.599Z,23.50
2023-11-23T04:04:49.224Z,22.73
2023-11-23T04:07:17.617Z,20.83
2023-11-23T04:09:47.514Z,22.40
2023-11-23T04:12:16.187Z,23.87
2023-11-23T04:14:44.604Z,24.33
2023-11-23T04:17:13.180Z,22.83
2023-11-23T04:19:41.869Z,22.10
2023-11-23T04:22:10.298Z,26.40
2023-11-23T04:24:40.610Z,24.97
2023-11-23T04:27:11.086Z,23.27
2023-11-23T04:29:39.620Z,23.03
2023-11-23T04:32:09.671Z,22.40
2023-11-23T04:34:38.179Z,19.30
2023-11-23T04:37:07.126Z,21.33
2023-11-23T04:39:35.628Z,23.87
2023-11-23T04:42:04.011Z,22.20
2023-11-23T04:44:33.845Z,21.40
2023-11-23T04:47:02.260Z,20.77
2023-11-23T04:49:30.687Z,20.47
2023-11-23T04:51:59.209Z,19.60
2023-11-23T04:54:27.714Z,26.20
2023-11-23T04:56:56.452Z,23.53
2023-11-23T04:59:24.850Z,26.37
2023-11-23T05:01:54.774Z,24.37
2023-11-23T05:04:23.439Z,25.70
2023-11-23T05:09:53.254Z,26.37
2023-11-23T05:12:21.690Z,24.37
2023-11-23T05:14:50.173Z,26.43
2023-11-23T05:17:20.062Z,21.87
2023-11-23T05:19:48.459Z,22.80
2023-11-23T05:22:16.890Z,24.40
2023-11-23T05:24:45.365Z,30.63
2023-11-23T05:27:14.159Z,23.63
2023-11-23T05:29:42.665Z,22.23
2023-11-23T05:32:11.118Z,21.87
2023-11-23T05:34:40.921Z,23.67
2023-11-23T05:37:09.346Z,20.77
2023-11-23T05:39:43.112Z,23.87
2023-11-23T05:42:12.708Z,24.20
2023-11-23T05:44:41.372Z,22.07
2023-11-23T05:47:09.709Z,21.07
2023-11-23T05:49:38.790Z,22.53
2023-11-23T05:52:09.861Z,25.53
2023-11-23T05:54:38.796Z,20.40
2023-11-23T05:57:07.573Z,22.80
2023-11-23T05:59:36.189Z,20.87
2023-11-23T06:02:07.085Z,22.43
2023-11-23T06:04:36.191Z,25.30
2023-11-23T06:07:04.943Z,20.47
2023-11-23T06:09:35.000Z,25.73
2023-11-23T06:12:04.064Z,21.20
2023-11-23T06:14:32.435Z,22.17
2023-11-23T06:17:01.114Z,22.43
2023-11-23T06:19:29.673Z,25.03
2023-11-23T06:21:58.160Z,25.07
2023-11-23T06:24:26.605Z,22.97
2023-11-23T06:26:56.486Z,21.70
2023-11-23T06:29:25.033Z,21.97
2023-11-23T06:31:54.919Z,22.80
2023-11-23T06:34:24.059Z,21.20
2023-11-23T06:36:52.569Z,20.33
2023-11-23T06:39:25.425Z,22.90
2023-11-23T06:41:57.174Z,21.40
2023-11-23T06:44:26.595Z,19.77
2023-11-23T06:46:55.544Z,20.13
2023-11-23T06:49:24.243Z,19.63
2023-11-23T06:51:53.346Z,20.10
2023-11-23T06:54:21.876Z,20.13
2023-11-23T06:56:50.360Z,20.17
2023-11-23T06:59:21.337Z,18.23
2023-11-23T07:01:49.914Z,17.97
2023-11-23T07:04:18.699Z,20.43
2023-11-23T07:06:47.093Z,18.90
2023-11-23T07:09:15.800Z,22.60
2023-11-23T07:11:45.892Z,16.40
2023-11-23T07:14:14.348Z,17.27
2023-11-23T07:16:44.581Z,17.47
2023-11-23T07:19:13.621Z,13.57
2023-11-23T07:21:42.027Z,17.50
2023-11-23T07:24:11.501Z,14.60
2023-11-23T07:26:40.106Z,15.40
2023-11-23T07:29:10.053Z,13.77
2023-11-23T07:31:42.022Z,13.47
2023-11-23T07:34:12.235Z,13.13
2023-11-23T07:36:41.617Z,12.47
2023-11-23T07:39:10.269Z,12.10
2023-11-23T07:41:39.425Z,13.17
2023-11-23T07:44:08.232Z,10.73
2023-11-23T07:46:37.249Z,12.87
2023-11-23T07:49:06.832Z,12.33
2023-11-23T07:51:36.676Z,10.97
2023-11-23T07:54:05.297Z,10.57
2023-11-23T07:56:35.525Z,12.90
2023-11-23T07:59:03.963Z,11.47
2023-11-23T08:01:32.456Z,13.13
2023-11-23T08:04:01.773Z,11.63
2023-11-23T08:06:30.278Z,13.43
2023-11-23T08:09:00.368Z,9.73
2023-11-23T08:11:29.136Z,11.40
2023-11-23T08:13:57.552Z,10.40
2023-11-23T08:16:26.271Z,12.63
2023-11-23T08:18:54.765Z,8.83
2023-11-23T08:21:24.274Z,11.20
2023-11-23T08:23:53.246Z,9.10
2023-11-23T08:26:23.866Z,12.00
2023-11-23T08:28:52.320Z,14.77
2023-11-23T08:31:21.726Z,9.67
2023-11-23T08:33:50.246Z,8.97
2023-11-23T08:36:18.872Z,7.67
2023-11-23T08:38:48.372Z,10.93
2023-11-23T08:41:18.241Z,7.87
2023-11-23T08:43:48.986Z,9.33
2023-11-23T08:46:17.433Z,7.47
2023-11-23T08:48:46.243Z,12.50
2023-11-23T08:51:15.278Z,7.33
2023-11-23T08:53:43.779Z,11.30
2023-11-23T08:56:14.603Z,8.97
2023-11-23T08:58:43.719Z,8.63
2023-11-23T09:01:13.744Z,9.10
2023-11-23T09:03:42.264Z,7.30
2023-11-23T09:06:11.372Z,9.07
2023-11-23T09:08:41.687Z,11.83
2023-11-23T09:11:10.320Z,8.97
2023-11-23T09:13:39.243Z,12.50
2023-11-23T09:16:09.092Z,7.13
2023-11-23T09:18:39.142Z,10.40
2023-11-23T09:21:08.186Z,7.33
2023-11-23T09:23:36.855Z,7.53
2023-11-23T09:26:06.260Z,7.70
2023-11-23T09:28:34.799Z,9.27
2023-11-23T09:31:04.148Z,7.00
2023-11-23T09:33:32.976Z,7.07
2023-11-23T09:36:03.990Z,7.47
2023-11-23T09:38:32.584Z,6.77
2023-11-23T09:41:04.234Z,6.30
2023-11-23T09:43:33.235Z,6.73
2023-11-23T09:46:04.038Z,8.20
2023-11-23T09:48:36.495Z,6.50
2023-11-23T09:51:07.210Z,6.50
2023-11-23T09:53:38.252Z,6.97
2023-11-23T09:56:07.834Z,7.20
2023-11-23T09:58:36.310Z,6.63
2023-11-23T10:01:05.704Z,8.30
2023-11-23T10:03:36.412Z,6.97
2023-11-23T10:06:06.773Z,8.00
2023-11-23T10:08:38.562Z,6.27
2023-11-23T10:11:08.074Z,8.20
2023-11-23T10:13:36.472Z,7.70
2023-11-23T10:16:05.947Z,6.23
2023-11-23T10:18:38.605Z,7.60
2023-11-23T10:21:13.096Z,6.40
2023-11-23T10:23:44.763Z,5.87
2023-11-23T10:26:13.259Z,5.40
2023-11-23T10:28:42.674Z,5.13
2023-11-23T10:31:13.907Z,6.00
2023-11-23T10:33:44.128Z,6.63
2023-11-23T10:36:14.678Z,5.90
2023-11-23T10:38:44.963Z,6.43
2023-11-23T10:41:16.039Z,8.23
2023-11-23T10:43:47.339Z,4.47
2023-11-23T10:46:17.265Z,6.30
2023-11-23T10:48:48.161Z,4.97
2023-11-23T10:51:18.486Z,5.53
2023-11-23T10:53:47.044Z,6.40
2023-11-23T10:56:20.471Z,5.17
2023-11-23T10:58:52.281Z,4.07
2023-11-23T11:01:24.549Z,5.63
2023-11-23T11:03:53.571Z,6.47
2023-11-23T11:06:24.563Z,4.10
2023-11-23T11:08:53.271Z,5.00
2023-11-23T11:11:23.927Z,6.60
2023-11-23T11:14:02.641Z,7.00
2023-11-23T11:16:35.353Z,5.10
2023-11-23T11:19:08.370Z,4.47
2023-11-23T11:21:45.574Z,3.17
2023-11-23T11:24:21.802Z,3.80
2023-11-23T11:26:51.256Z,6.27
2023-11-23T11:29:20.396Z,4.80
2023-11-23T11:31:50.574Z,4.20
2023-11-23T11:34:20.780Z,4.43
2023-11-23T11:37:00.115Z,4.53
2023-11-23T11:39:32.982Z,4.63
2023-11-23T11:42:02.680Z,4.77
2023-11-23T11:44:31.497Z,7.27
2023-11-23T11:47:00.034Z,5.37
2023-11-23T11:49:29.045Z,4.67
2023-11-23T11:51:59.310Z,7.77
2023-11-23T11:54:27.890Z,5.70
2023-11-23T11:56:56.441Z,5.50
2023-11-23T11:59:30.310Z,4.50
2023-11-23T12:01:59.506Z,4.83
2023-11-23T12:04:28.130Z,5.30
2023-11-23T12:06:58.237Z,4.80
2023-11-23T12:09:34.847Z,5.17
2023-11-23T12:12:12.041Z,5.07
2023-11-23T12:14:40.831Z,6.27
2023-11-23T12:17:12.023Z,7.07
2023-11-23T12:19:53.161Z,5.63
2023-11-23T12:22:25.718Z,6.90
2023-11-23T12:24:57.943Z,5.20
2023-11-23T12:27:28.295Z,3.97
2023-11-23T12:29:56.868Z,4.97
2023-11-23T12:32:25.536Z,4.77
2023-11-23T12:34:54.521Z,4.33
2023-11-23T12:37:23.557Z,4.57
2023-11-23T12:39:53.024Z,5.50
2023-11-23T12:42:24.345Z,4.50
2023-11-23T12:44:52.900Z,4.40
2023-11-23T12:47:22.929Z,4.70
2023-11-23T12:49:52.855Z,4.40
2023-11-23T12:52:21.346Z,5.70
2023-11-23T12:54:49.724Z,4.43
2023-11-23T12:57:18.238Z,4.57
2023-11-23T12:59:48.036Z,4.30
2023-11-23T13:02:16.591Z,6.00
2023-11-23T13:04:45.285Z,4.83
2023-11-23T13:07:14.912Z,4.50
2023-11-23T13:09:43.366Z,4.93
2023-11-23T13:12:11.882Z,5.00
2023-11-23T13:14:40.608Z,6.40
2023-11-23T13:17:11.137Z,5.77
2023-11-23T13:19:43.558Z,4.87
2023-11-23T13:22:12.778Z,6.70
2023-11-23T13:24:41.492Z,6.10
2023-11-23T13:27:10.454Z,5.77
2023-11-23T13:29:39.217Z,4.23
2023-11-23T13:32:11.885Z,7.47
2023-11-23T13:34:40.490Z,7.13
2023-11-23T13:37:10.487Z,6.10
2023-11-23T13:39:39.711Z,4.97
2023-11-23T13:42:08.319Z,6.70
2023-11-23T13:44:36.848Z,4.50
2023-11-23T13:47:08.404Z,5.57
2023-11-23T13:49:39.542Z,5.57
2023-11-23T13:52:11.544Z,4.97
2023-11-23T13:54:40.635Z,5.40
2023-11-23T13:57:09.225Z,5.40
2023-11-23T13:59:37.676Z,6.13
2023-11-23T14:02:07.446Z,5.37
2023-11-23T14:04:37.607Z,4.70
2023-11-23T14:07:07.236Z,9.33
2023-11-23T14:09:35.654Z,9.93
2023-11-23T14:12:05.142Z,7.87
2023-11-23T14:14:33.648Z,7.20
2023-11-23T14:17:02.197Z,5.87
2023-11-23T14:19:30.627Z,6.83
2023-11-23T14:22:02.162Z,5.60
2023-11-23T14:24:31.383Z,5.10
2023-11-23T14:26:59.787Z,5.40
2023-11-23T14:29:28.304Z,5.57
2023-11-23T14:31:56.794Z,6.87
2023-11-23T14:34:25.471Z,5.60
2023-11-23T14:36:56.693Z,6.20
2023-11-23T14:39:29.184Z,4.70
2023-11-23T14:41:58.426Z,4.07
2023-11-23T14:44:26.951Z,7.73
2023-11-23T14:46:55.832Z,4.70
2023-11-23T14:49:24.749Z,4.60
2023-11-23T14:51:54.502Z,3.50
2023-11-23T14:54:32.061Z,5.80
2023-11-23T14:57:09.223Z,10.87
2023-11-23T14:59:38.402Z,17.40
2023-11-23T15:02:08.251Z,16.77
2023-11-23T15:04:36.991Z,20.10
2023-11-23T15:07:05.777Z,8.63
2023-11-23T15:09:34.460Z,7.13
2023-11-23T15:12:03.863Z,8.53
2023-11-23T15:14:33.947Z,12.97
2023-11-23T15:17:02.753Z,8.13
2023-11-23T15:19:35.900Z,19.60
2023-11-23T15:22:07.623Z,12.00
2023-11-23T15:24:36.772Z,5.83
2023-11-23T15:27:08.683Z,6.93
2023-11-23T15:29:38.819Z,8.17
2023-11-23T15:32:08.570Z,7.77
2023-11-23T15:34:37.031Z,8.90
2023-11-23T15:37:06.117Z,9.23
2023-11-23T15:39:34.887Z,6.27
2023-11-23T15:42:04.668Z,7.37
2023-11-23T15:44:33.164Z,9.60
2023-11-23T15:47:03.861Z,7.70
2023-11-23T15:49:32.443Z,5.13
2023-11-23T15:52:01.041Z,6.43
2023-11-23T15:54:29.448Z,6.90
2023-11-23T15:56:58.705Z,5.83
2023-11-23T15:59:27.334Z,5.23
2023-11-23T16:01:55.916Z,5.77
2023-11-23T16:04:27.226Z,6.97
2023-11-23T16:06:56.177Z,6.70
2023-11-23T16:09:25.695Z,5.60
2023-11-23T16:11:54.195Z,7.80
2023-11-23T16:14:22.736Z,5.30
2023-11-23T16:16:51.597Z,7.03
2023-11-23T16:19:21.253Z,4.90
2023-11-23T16:21:53.231Z,4.93
2023-11-23T16:24:21.960Z,8.63
2023-11-23T16:26:51.120Z,7.17
2023-11-23T16:29:19.712Z,4.23
2023-11-23T16:31:48.247Z,4.60
2023-11-23T16:34:18.197Z,4.40
2023-11-23T16:36:48.024Z,7.17
2023-11-23T16:39:19.807Z,3.93
2023-11-23T16:41:48.378Z,3.30
2023-11-23T16:44:17.707Z,5.10
2023-11-23T16:46:47.133Z,4.73
2023-11-23T16:49:16.618Z,5.57
2023-11-23T16:51:45.244Z,5.33
2023-11-23T16:54:15.896Z,5.57
2023-11-23T16:56:45.864Z,6.00
2023-11-23T16:59:14.444Z,5.23
2023-11-23T17:01:44.832Z,4.90
2023-11-23T17:04:13.445Z,4.60
2023-11-23T17:06:43.518Z,7.23
2023-11-23T17:09:12.632Z,6.37
2023-11-23T17:11:41.056Z,4.57
2023-11-23T17:14:12.747Z,5.23
2023-11-23T17:16:41.809Z,4.80
2023-11-23T17:19:14.055Z,4.60
2023-11-23T17:21:47.246Z,6.27
2023-11-23T17:24:16.454Z,4.17
2023-11-23T17:26:45.155Z,4.97
2023-11-23T17:29:15.244Z,4.97
2023-11-23T17:31:45.417Z,3.53
2023-11-23T17:34:14.178Z,5.20
2023-11-23T17:36:42.867Z,6.20
2023-11-23T17:39:17.201Z,5.40
2023-11-23T17:41:46.861Z,4.07
2023-11-23T17:44:17.170Z,4.87
2023-11-23T17:46:46.098Z,5.80
2023-11-23T17:49:17.529Z,5.00
2023-11-23T17:51:46.578Z,9.43
2023-11-23T17:54:16.231Z,11.47
2023-11-23T17:56:45.744Z,5.77
2023-11-23T17:59:25.824Z,5.53
2023-11-23T18:02:05.497Z,8.83
2023-11-23T18:04:34.181Z,12.67
2023-11-23T18:07:03.936Z,5.53
2023-11-23T18:09:33.615Z,7.93
2023-11-23T18:12:04.510Z,8.30
2023-11-23T18:14:33.576Z,18.13
2023-11-23T18:17:04.292Z,7.50
2023-11-23T18:19:34.167Z,31.20
2023-11-23T18:22:03.156Z,19.57
2023-11-23T18:24:31.984Z,13.37
2023-11-23T18:27:03.224Z,11.90
2023-11-23T18:29:31.870Z,6.90
2023-11-23T18:32:00.359Z,4.37
2023-11-23T18:34:30.379Z,7.53
2023-11-23T18:36:59.522Z,6.90
2023-11-23T18:39:28.732Z,5.13
2023-11-23T18:41:57.644Z,5.93
2023-11-23T18:44:26.066Z,3.37
2023-11-23T18:46:55.973Z,3.73
2023-11-23T18:49:29.384Z,3.37
2023-11-23T18:51:59.670Z,3.23
2023-11-23T18:54:28.374Z,3.13
2023-11-23T18:56:57.189Z,3.13
2023-11-23T18:59:25.863Z,3.40
2023-11-23T19:01:55.848Z,4.07
2023-11-23T19:04:24.637Z,4.13
2023-11-23T19:06:56.176Z,4.27
2023-11-23T19:09:28.793Z,4.20
2023-11-23T19:11:58.409Z,5.23
2023-11-23T19:14:27.402Z,4.43
2023-11-23T19:16:56.375Z,3.97
2023-11-23T19:19:25.348Z,3.73
2023-11-23T19:21:54.510Z,4.30
2023-11-23T19:24:24.627Z,4.37
2023-11-23T19:26:55.092Z,3.57
2023-11-23T19:29:34.926Z,3.83
2023-11-23T19:32:09.047Z,3.37
2023-11-23T19:34:38.422Z,4.87
2023-11-23T19:37:07.620Z,4.43
2023-11-23T19:39:37.270Z,4.87
2023-11-23T19:42:09.334Z,4.47
2023-11-23T19:44:38.502Z,4.00
2023-11-23T19:47:07.627Z,5.40
2023-11-23T19:49:36.641Z,5.60
2023-11-23T19:52:14.465Z,6.20
2023-11-23T19:54:43.947Z,5.20
2023-11-23T19:57:17.007Z,4.83
2023-11-23T19:59:47.611Z,5.27
2023-11-23T20:02:16.888Z,3.50
2023-11-23T20:04:46.630Z,5.23
2023-11-23T20:07:15.073Z,5.90
2023-11-23T20:09:44.578Z,6.97
2023-11-23T20:12:15.297Z,4.17
2023-11-23T20:14:43.870Z,4.10
2023-11-23T20:17:12.412Z,3.53
2023-11-23T20:19:48.671Z,7.47
2023-11-23T20:22:17.692Z,4.20
2023-11-23T20:24:47.535Z,3.83
2023-11-23T20:27:17.791Z,4.53
2023-11-23T20:29:46.847Z,8.93
2023-11-23T20:32:15.601Z,3.63
2023-11-23T20:34:45.823Z,3.77
2023-11-23T20:37:14.773Z,3.93
2023-11-23T20:39:43.438Z,3.73
2023-11-23T20:42:12.754Z,3.47
2023-11-23T20:44:45.084Z,4.17
2023-11-23T20:47:13.725Z,4.53
2023-11-23T20:49:42.161Z,4.37
2023-11-23T20:52:11.204Z,4.20
2023-11-23T20:54:39.815Z,4.27
2023-11-23T20:57:09.322Z,3.40
2023-11-23T20:59:38.394Z,5.20
2023-11-23T21:02:10.109Z,3.87
2023-11-23T21:04:39.347Z,3.73
2023-11-23T21:07:09.044Z,5.23
2023-11-23T21:09:38.445Z,3.80
2023-11-23T21:12:14.885Z,8.43
2023-11-23T21:14:50.452Z,3.77
2023-11-23T21:17:20.451Z,3.87
2023-11-23T21:19:49.266Z,3.43
2023-11-23T21:22:18.598Z,3.67
2023-11-23T21:24:47.192Z,4.73
2023-11-23T21:27:16.371Z,3.83
2023-11-23T21:29:44.936Z,6.90
2023-11-23T21:32:16.680Z,5.37
2023-11-23T21:34:47.703Z,5.37
2023-11-23T21:37:16.967Z,7.13
2023-11-23T21:39:45.886Z,4.73
2023-11-23T21:42:15.925Z,4.07
2023-11-23T21:44:44.315Z,4.47
2023-11-23T21:47:12.767Z,4.47
2023-11-23T21:49:42.406Z,3.87
2023-11-23T21:52:13.492Z,4.13
2023-11-23T21:54:50.214Z,2.77
2023-11-23T21:57:22.845Z,4.20
2023-11-23T21:59:51.637Z,5.63
2023-11-23T22:02:20.283Z,6.60
2023-11-23T22:04:48.777Z,7.47
2023-11-23T22:07:18.642Z,6.00
2023-11-23T22:09:47.169Z,3.13
2023-11-23T22:12:15.812Z,2.73
2023-11-23T22:14:44.483Z,3.17
2023-11-23T22:17:13.822Z,3.00
2023-11-23T22:19:43.718Z,3.77
2023-11-23T22:22:12.776Z,3.87
2023-11-23T22:24:44.540Z,3.93
2023-11-23T22:27:13.492Z,2.83
2023-11-23T22:29:42.380Z,3.00
2023-11-23T22:32:11.716Z,2.80
2023-11-23T22:34:40.888Z,3.77
2023-11-23T22:37:10.089Z,2.63
2023-11-23T22:39:38.932Z,2.77
2023-11-23T22:42:16.184Z,2.60
2023-11-23T22:44:50.358Z,6.13
2023-11-23T22:47:19.633Z,2.00
2023-11-23T22:49:50.589Z,1.97
2023-11-23T22:52:20.560Z,3.07
2023-11-23T22:54:49.256Z,1.90
2023-11-23T22:57:19.171Z,1.60
2023-11-23T22:59:47.614Z,1.70
2023-11-23T23:02:16.351Z,1.80
2023-11-23T23:04:46.349Z,1.80
2023-11-23T23:07:14.860Z,1.50
2023-11-23T23:09:43.413Z,4.17
2023-11-23T23:12:12.038Z,3.07
2023-11-23T23:14:41.900Z,3.00
2023-11-23T23:17:10.443Z,3.10
2023-11-23T23:19:38.893Z,1.73
2023-11-23T23:22:16.944Z,1.30
2023-11-23T23:24:52.683Z,3.17
2023-11-23T23:27:21.270Z,1.00
2023-11-23T23:29:52.098Z,3.03
2023-11-23T23:32:20.499Z,0.60
2023-11-23T23:34:50.259Z,1.60
2023-11-23T23:37:19.229Z,1.80
2023-11-23T23:39:48.657Z,2.20
2023-11-23T23:42:17.477Z,0.60
2023-11-23T23:44:46.960Z,1.80
2023-11-23T23:47:16.809Z,1.30
2023-11-23T23:49:45.623Z,2.53
2023-11-23T23:52:14.036Z,0.73
2023-11-23T23:54:43.103Z,0.73
2023-11-23T23:57:11.680Z,0.67
2023-11-23T23:59:41.633Z,1.07
